createdAt,value
2023-05-08T00:02:21.993Z,100989.78
2023-05-08T00:04:49.565Z,100992.47
2023-05-08T00:07:18.403Z,100993.34
2023-05-08T00:09:46.092Z,101002.22
2023-05-08T00:12:13.610Z,100989.75
2023-05-08T00:14:41.194Z,100997.75
2023-05-08T00:17:08.745Z,100996.84
2023-05-08T00:19:36.504Z,101007.50
2023-05-08T00:22:04.009Z,101005.69
2023-05-08T00:24:32.840Z,101002.16
2023-05-08T00:27:00.381Z,101004.81
2023-05-08T00:29:27.903Z,101001.28
2023-05-08T00:31:55.549Z,101004.88
2023-05-08T00:34:23.119Z,100993.31
2023-05-08T00:36:50.618Z,100999.47
2023-05-08T00:39:18.322Z,101000.34
2023-05-08T00:41:47.267Z,100996.78
2023-05-08T00:44:14.899Z,101001.19
2023-05-08T00:46:42.846Z,100998.53
2023-05-08T00:49:13.157Z,101003.88
2023-05-08T00:51:41.077Z,100997.66
2023-05-08T00:54:08.603Z,101000.31
2023-05-08T00:56:36.918Z,100994.09
2023-05-08T00:59:09.321Z,100997.63
2023-05-08T01:01:37.923Z,100994.22
2023-05-08T01:04:05.940Z,101000.44
2023-05-08T01:06:34.121Z,100995.84
2023-05-08T01:09:01.763Z,100995.00
2023-05-08T01:11:32.090Z,100991.34
2023-05-08T01:14:12.118Z,100996.84
2023-05-08T01:16:43.058Z,100995.78
2023-05-08T01:19:26.305Z,100997.53
2023-05-08T01:21:57.970Z,100987.91
2023-05-08T01:24:43.193Z,101002.88
2023-05-08T01:27:36.694Z,100996.69
2023-05-08T01:30:17.593Z,100995.84
2023-05-08T01:32:52.247Z,100997.56
2023-05-08T01:35:25.057Z,101002.78
2023-05-08T01:37:58.344Z,101003.78
2023-05-08T01:40:34.087Z,101000.19
2023-05-08T01:43:09.303Z,101002.75
2023-05-08T01:45:40.418Z,101000.31
2023-05-08T01:48:11.854Z,101003.91
2023-05-08T01:50:43.006Z,101002.25
2023-05-08T01:53:18.259Z,101002.97
2023-05-08T01:55:48.322Z,101004.50
2023-05-08T01:58:16.083Z,101007.94
2023-05-08T02:00:44.241Z,100999.97
2023-05-08T02:03:14.823Z,101005.47
2023-05-08T02:05:43.094Z,101005.44
2023-05-08T02:08:12.912Z,101005.19
2023-05-08T02:10:41.159Z,101001.72
2023-05-08T02:13:09.814Z,101005.19
2023-05-08T02:15:37.894Z,101000.72
2023-05-08T02:18:06.589Z,100999.84
2023-05-08T02:20:35.484Z,101005.13
2023-05-08T02:23:03.364Z,101006.91
2023-05-08T02:25:32.150Z,101004.53
2023-05-08T02:28:00.190Z,101001.63
2023-05-08T02:30:28.094Z,101001.59
2023-05-08T02:33:00.209Z,100997.94
2023-05-08T02:35:28.617Z,101002.47
2023-05-08T02:37:58.680Z,101000.53
2023-05-08T02:40:28.803Z,100993.53
2023-05-08T02:42:56.484Z,100993.66
2023-05-08T02:45:24.797Z,101002.25
2023-05-08T02:47:57.150Z,101003.25
2023-05-08T02:50:30.246Z,101012.16
2023-05-08T02:53:04.703Z,100997.88
2023-05-08T02:55:37.277Z,100996.94
2023-05-08T02:58:11.180Z,101002.19
2023-05-08T03:00:43.948Z,100996.88
2023-05-08T03:03:16.949Z,101003.22
2023-05-08T03:05:48.957Z,100987.25
2023-05-08T03:08:20.872Z,100994.34
2023-05-08T03:10:51.023Z,100994.22
2023-05-08T03:13:20.180Z,100990.84
2023-05-08T03:15:49.921Z,100990.75
2023-05-08T03:18:19.240Z,101000.25
2023-05-08T03:20:49.477Z,100994.97
2023-05-08T03:23:19.991Z,100995.03
2023-05-08T03:25:47.504Z,100987.00
2023-05-08T03:28:15.670Z,100990.66
2023-05-08T03:30:43.306Z,100987.97
2023-05-08T03:33:12.596Z,100986.09
2023-05-08T03:35:40.747Z,100985.19
2023-05-08T03:38:08.830Z,100986.91
2023-05-08T03:40:38.740Z,100983.56
2023-05-08T03:43:07.676Z,100989.63
2023-05-08T03:45:36.354Z,100983.53
2023-05-08T03:48:04.945Z,100986.22
2023-05-08T03:50:32.679Z,100994.19
2023-05-08T03:53:00.455Z,100987.22
2023-05-08T03:55:27.957Z,100991.59
2023-05-08T03:58:03.245Z,100991.47
2023-05-08T04:00:38.857Z,100993.28
2023-05-08T04:03:15.135Z,101000.75
2023-05-08T04:05:48.918Z,100999.53
2023-05-08T04:08:18.491Z,101000.28
2023-05-08T04:10:50.558Z,101005.53
2023-05-08T04:13:23.294Z,101000.59
2023-05-08T04:15:53.406Z,101009.19
2023-05-08T04:18:26.504Z,101017.47
2023-05-08T04:20:55.818Z,101009.41
2023-05-08T04:23:24.271Z,101012.06
2023-05-08T04:25:53.386Z,101019.16
2023-05-08T04:28:22.809Z,101010.69
2023-05-08T04:30:51.034Z,101016.56
2023-05-08T04:33:19.082Z,101023.66
2023-05-08T04:35:47.159Z,101018.31
2023-05-08T04:38:14.648Z,101023.81
2023-05-08T04:40:42.165Z,101015.84
2023-05-08T04:43:09.646Z,101023.81
2023-05-08T04:45:38.468Z,101021.16
2023-05-08T04:48:07.003Z,101023.03
2023-05-08T04:50:34.660Z,101015.84
2023-05-08T04:53:02.208Z,101019.34
2023-05-08T04:55:29.730Z,101015.41
2023-05-08T04:57:57.194Z,101021.44
2023-05-08T05:00:24.713Z,101028.59
2023-05-08T05:02:53.592Z,101031.84
2023-05-08T05:05:21.326Z,101024.75
2023-05-08T05:07:48.797Z,101030.09
2023-05-08T05:10:16.477Z,101039.97
2023-05-08T05:12:43.978Z,101026.84
2023-05-08T05:15:12.611Z,101031.47
2023-05-08T05:17:40.380Z,101028.81
2023-05-08T05:20:10.466Z,101034.09
2023-05-08T05:22:37.973Z,101033.13
2023-05-08T05:25:06.145Z,101039.38
2023-05-08T05:27:35.661Z,101037.59
2023-05-08T05:30:03.669Z,101046.41
2023-05-08T05:32:31.288Z,101043.75
2023-05-08T05:34:58.813Z,101043.06
2023-05-08T05:37:28.077Z,101036.75
2023-05-08T05:39:55.565Z,101034.13
2023-05-08T05:42:23.228Z,101038.56
2023-05-08T05:44:50.729Z,101047.34
2023-05-08T05:47:18.262Z,101044.84
2023-05-08T05:49:46.935Z,101046.63
2023-05-08T05:52:14.583Z,101045.75
2023-05-08T05:54:43.541Z,101045.78
2023-05-08T05:57:11.006Z,101050.25
2023-05-08T05:59:38.496Z,101052.91
2023-05-08T06:02:06.441Z,101051.97
2023-05-08T06:04:34.154Z,101050.25
2023-05-08T06:07:01.749Z,101052.88
2023-05-08T06:09:30.048Z,101053.78
2023-05-08T06:11:59.410Z,101051.25
2023-05-08T06:14:26.893Z,101052.84
2023-05-08T06:16:54.413Z,101054.66
2023-05-08T06:19:24.162Z,101051.94
2023-05-08T06:21:52.014Z,101048.34
2023-05-08T06:24:19.614Z,101055.44
2023-05-08T06:26:47.512Z,101057.09
2023-05-08T06:29:16.334Z,101048.34
2023-05-08T06:31:44.054Z,101054.56
2023-05-08T06:34:11.580Z,101052.84
2023-05-08T06:36:39.114Z,101049.00
2023-05-08T06:39:07.370Z,101043.34
2023-05-08T06:41:34.864Z,101046.50
2023-05-08T06:44:02.333Z,101043.66
2023-05-08T06:46:31.203Z,101048.16
2023-05-08T06:48:58.731Z,101042.00
2023-05-08T06:51:26.275Z,101046.16
2023-05-08T06:53:53.757Z,101043.47
2023-05-08T06:56:22.756Z,101042.81
2023-05-08T06:59:00.508Z,101037.88
2023-05-08T07:01:33.632Z,101035.47
2023-05-08T07:04:01.276Z,101038.16
2023-05-08T07:06:28.766Z,101036.44
2023-05-08T07:08:56.230Z,101043.63
2023-05-08T07:11:23.905Z,101035.69
2023-05-08T07:13:51.481Z,101038.28
2023-05-08T07:16:19.234Z,101037.47
2023-05-08T07:18:48.171Z,101032.91
2023-05-08T07:21:18.062Z,101036.47
2023-05-08T07:23:45.581Z,101046.91
2023-05-08T07:26:13.048Z,101044.28
2023-05-08T07:28:40.528Z,101047.66
2023-05-08T07:31:08.407Z,101045.59
2023-05-08T07:33:35.997Z,101045.28
2023-05-08T07:36:05.083Z,101043.16
2023-05-08T07:38:32.641Z,101045.28
2023-05-08T07:41:01.945Z,101033.00
2023-05-08T07:43:29.458Z,101043.78
2023-05-08T07:45:57.137Z,101040.53
2023-05-08T07:48:24.854Z,101043.59
2023-05-08T07:50:52.390Z,101035.63
2023-05-08T07:53:21.405Z,101043.56
2023-05-08T07:55:48.879Z,101043.44
2023-05-08T07:58:16.451Z,101059.44
2023-05-08T08:00:44.633Z,101057.00
2023-05-08T08:03:12.201Z,101051.09
2023-05-08T08:05:39.725Z,101046.56
2023-05-08T08:08:07.245Z,101052.59
2023-05-08T08:10:36.046Z,101049.94
2023-05-08T08:13:03.563Z,101056.03
2023-05-08T08:15:31.200Z,101048.38
2023-05-08T08:17:58.750Z,101055.72
2023-05-08T08:20:26.286Z,101049.22
2023-05-08T08:22:53.791Z,101051.09
2023-05-08T08:25:21.765Z,101044.47
2023-05-08T08:27:50.599Z,101035.28
2023-05-08T08:30:18.889Z,101048.69
2023-05-08T08:32:46.770Z,101046.16
2023-05-08T08:35:14.835Z,101038.69
2023-05-08T08:37:43.158Z,101054.84
2023-05-08T08:40:11.158Z,101041.72
2023-05-08T08:42:38.631Z,101046.41
2023-05-08T08:45:08.613Z,101034.56
2023-05-08T08:47:38.193Z,101050.16
2023-05-08T08:50:08.070Z,101042.03
2023-05-08T08:52:41.157Z,101055.47
2023-05-08T08:55:11.564Z,101059.19
2023-05-08T08:57:43.011Z,101057.25
2023-05-08T09:00:13.147Z,101042.13
2023-05-08T09:02:40.790Z,101054.41
2023-05-08T09:05:09.228Z,101040.53
2023-05-08T09:07:36.904Z,101046.94
2023-05-08T09:10:07.693Z,101053.28
2023-05-08T09:12:35.223Z,101052.72
2023-05-08T09:15:03.087Z,101060.31
2023-05-08T09:17:32.104Z,101070.72
2023-05-08T09:19:59.749Z,101057.41
2023-05-08T09:22:27.392Z,101066.06
2023-05-08T09:24:56.082Z,101060.97
2023-05-08T09:27:24.960Z,101053.34
2023-05-08T09:30:04.184Z,101060.06
2023-05-08T09:32:34.264Z,101058.50
2023-05-08T09:35:02.155Z,101064.72
2023-05-08T09:37:30.331Z,101053.00
2023-05-08T09:40:14.671Z,101042.63
2023-05-08T09:42:42.275Z,101062.06
2023-05-08T09:45:11.127Z,101055.16
2023-05-08T09:47:40.393Z,101048.91
2023-05-08T09:50:09.215Z,101055.38
2023-05-08T09:52:37.973Z,101048.50
2023-05-08T09:55:07.551Z,101053.78
2023-05-08T09:57:38.278Z,101055.38
2023-05-08T10:00:09.083Z,101051.41
2023-05-08T10:02:37.005Z,101057.94
2023-05-08T10:05:07.971Z,101056.72
2023-05-08T10:07:37.151Z,101048.31
2023-05-08T10:10:05.902Z,101044.75
2023-05-08T10:12:33.986Z,101041.25
2023-05-08T10:15:01.488Z,101035.09
2023-05-08T10:17:33.261Z,101045.91
2023-05-08T10:20:02.228Z,101034.50
2023-05-08T10:22:33.679Z,101029.88
2023-05-08T10:25:02.230Z,101034.75
2023-05-08T10:27:36.381Z,101027.94
2023-05-08T10:30:06.051Z,101034.13
2023-05-08T10:32:40.564Z,101028.69
2023-05-08T10:35:10.844Z,101034.41
2023-05-08T10:37:42.100Z,101024.00
2023-05-08T10:40:11.670Z,101022.28
2023-05-08T10:42:40.013Z,101017.34
2023-05-08T10:45:08.854Z,101013.34
2023-05-08T10:47:46.060Z,101021.97
2023-05-08T10:50:23.990Z,101016.94
2023-05-08T10:52:57.312Z,101012.72
2023-05-08T10:55:29.013Z,101007.63
2023-05-08T10:58:07.496Z,100995.69
2023-05-08T11:01:18.254Z,100998.00
2023-05-08T11:03:47.932Z,100998.06
2023-05-08T11:06:15.876Z,100998.38
2023-05-08T11:08:53.076Z,100989.94
2023-05-08T11:11:29.415Z,100989.50
2023-05-08T11:14:10.829Z,100986.78
2023-05-08T11:17:06.959Z,100967.25
2023-05-08T11:19:34.869Z,100964.72
2023-05-08T11:22:29.079Z,100968.50
2023-05-08T11:25:00.216Z,100960.19
2023-05-08T11:28:04.325Z,100967.06
2023-05-08T11:30:37.188Z,100966.34
2023-05-08T11:33:15.543Z,100957.03
2023-05-08T11:36:12.861Z,100945.31
2023-05-08T11:38:40.947Z,100953.19
2023-05-08T11:41:10.869Z,100955.66
2023-05-08T11:44:09.452Z,100947.53
2023-05-08T11:46:40.762Z,100956.78
2023-05-08T11:49:12.281Z,100942.25
2023-05-08T11:51:44.650Z,100950.91
2023-05-08T11:54:13.028Z,100946.19
2023-05-08T11:56:41.815Z,100937.44
2023-05-08T11:59:11.734Z,100936.88
2023-05-08T12:01:39.286Z,100941.06
2023-05-08T12:04:08.461Z,100945.56
2023-05-08T12:06:37.789Z,100947.63
2023-05-08T12:09:11.254Z,100939.88
2023-05-08T12:11:39.240Z,100944.81
2023-05-08T12:14:08.132Z,100951.88
2023-05-08T12:16:37.521Z,100947.97
2023-05-08T12:19:05.714Z,100942.75
2023-05-08T12:21:33.202Z,100950.34
2023-05-08T12:24:01.426Z,100948.16
2023-05-08T12:26:28.898Z,100946.59
2023-05-08T12:28:57.087Z,100934.31
2023-05-08T12:31:25.983Z,100939.50
2023-05-08T12:33:53.545Z,100950.25
2023-05-08T12:36:21.117Z,100943.72
2023-05-08T12:38:48.604Z,100939.69
2023-05-08T12:41:16.115Z,100940.16
2023-05-08T12:43:47.969Z,100936.50
2023-05-08T12:46:17.707Z,100939.16
2023-05-08T12:48:46.597Z,100925.94
2023-05-08T12:51:14.091Z,100935.41
2023-05-08T12:53:41.556Z,100925.94
2023-05-08T12:56:09.422Z,100930.41
2023-05-08T12:58:36.937Z,100923.94
2023-05-08T13:01:06.563Z,100924.97
2023-05-08T13:03:34.454Z,100925.66
2023-05-08T13:06:03.575Z,100922.16
2023-05-08T13:08:33.247Z,100924.56
2023-05-08T13:11:01.532Z,100916.00
2023-05-08T13:13:31.507Z,100902.47
2023-05-08T13:15:59.326Z,100912.97
2023-05-08T13:18:28.055Z,100910.63
2023-05-08T13:20:56.428Z,100907.00
2023-05-08T13:23:25.572Z,100901.59
2023-05-08T13:25:53.139Z,100910.72
2023-05-08T13:28:20.655Z,100901.25
2023-05-08T13:30:48.134Z,100898.38
2023-05-08T13:33:15.628Z,100889.81
2023-05-08T13:35:43.087Z,100883.84
2023-05-08T13:38:10.584Z,100886.72
2023-05-08T13:40:39.528Z,100891.56
2023-05-08T13:43:07.042Z,100887.56
2023-05-08T13:45:34.574Z,100893.59
2023-05-08T13:48:02.150Z,100882.59
2023-05-08T13:50:29.784Z,100885.59
2023-05-08T13:52:57.294Z,100892.97
2023-05-08T13:55:24.834Z,100880.97
2023-05-08T13:57:53.687Z,100866.09
2023-05-08T14:00:21.523Z,100868.66
2023-05-08T14:02:51.525Z,100882.59
2023-05-08T14:05:19.866Z,100869.78
2023-05-08T14:07:47.326Z,100860.63
2023-05-08T14:10:16.963Z,100876.50
2023-05-08T14:12:44.519Z,100875.69
2023-05-08T14:15:13.710Z,100871.81
2023-05-08T14:17:42.282Z,100858.91
2023-05-08T14:20:12.013Z,100864.94
2023-05-08T14:22:39.747Z,100867.94
2023-05-08T14:25:08.808Z,100866.16
2023-05-08T14:27:36.295Z,100867.78
2023-05-08T14:30:03.958Z,100875.38
2023-05-08T14:32:32.853Z,100873.97
2023-05-08T14:35:00.438Z,100863.50
2023-05-08T14:37:27.910Z,100859.38
2023-05-08T14:39:56.127Z,100862.53
2023-05-08T14:42:23.895Z,100867.16
2023-05-08T14:44:51.630Z,100858.34
2023-05-08T14:47:19.175Z,100853.94
2023-05-08T14:49:48.007Z,100849.81
2023-05-08T14:52:15.762Z,100854.53
2023-05-08T14:54:43.498Z,100844.56
2023-05-08T14:57:11.264Z,100848.75
2023-05-08T14:59:45.879Z,100846.75
2023-05-08T15:02:20.637Z,100856.50
2023-05-08T15:04:49.550Z,100851.81
2023-05-08T15:07:17.036Z,100849.69
2023-05-08T15:09:44.569Z,100874.47
2023-05-08T15:12:12.254Z,100858.78
2023-05-08T15:14:39.712Z,100861.53
2023-05-08T15:17:07.372Z,100842.66
2023-05-08T15:19:34.853Z,100851.69
2023-05-08T15:22:04.217Z,100850.97
2023-05-08T15:24:31.730Z,100841.44
2023-05-08T15:26:59.237Z,100839.94
2023-05-08T15:29:27.552Z,100833.84
2023-05-08T15:31:55.085Z,100833.97
2023-05-08T15:34:24.571Z,100830.28
2023-05-08T15:36:53.911Z,100827.63
2023-05-08T15:39:22.702Z,100829.22
2023-05-08T15:41:50.172Z,100821.44
2023-05-08T15:44:19.703Z,100826.16
2023-05-08T15:46:47.184Z,100815.41
2023-05-08T15:49:14.729Z,100818.69
2023-05-08T15:51:42.224Z,100813.09
2023-05-08T15:54:09.842Z,100821.81
2023-05-08T15:56:38.636Z,100830.09
2023-05-08T15:59:06.548Z,100828.50
2023-05-08T16:01:34.911Z,100815.22
2023-05-08T16:04:02.926Z,100819.41
2023-05-08T16:06:30.904Z,100808.91
2023-05-08T16:08:59.883Z,100822.50
2023-05-08T16:11:31.134Z,100808.66
2023-05-08T16:14:02.086Z,100803.66
2023-05-08T16:16:29.997Z,100810.56
2023-05-08T16:18:57.883Z,100804.94
2023-05-08T16:21:27.351Z,100814.94
2023-05-08T16:23:55.962Z,100812.19
2023-05-08T16:26:23.990Z,100804.78
2023-05-08T16:28:51.983Z,100804.28
2023-05-08T16:31:21.339Z,100803.31
2023-05-08T16:33:49.229Z,100799.88
2023-05-08T16:36:17.070Z,100798.63
2023-05-08T16:38:45.160Z,100798.13
2023-05-08T16:41:13.484Z,100799.09
2023-05-08T16:43:41.585Z,100783.59
2023-05-08T16:46:09.604Z,100789.63
2023-05-08T16:48:38.911Z,100797.00
2023-05-08T16:51:09.210Z,100795.66
2023-05-08T16:53:36.986Z,100790.28
2023-05-08T16:56:05.241Z,100797.81
2023-05-08T16:58:33.276Z,100796.19
2023-05-08T17:01:01.511Z,100795.06
2023-05-08T17:03:29.541Z,100803.66
2023-05-08T17:05:58.923Z,100785.44
2023-05-08T17:08:26.807Z,100799.81
2023-05-08T17:10:54.818Z,100789.03
2023-05-08T17:13:23.189Z,100787.19
2023-05-08T17:15:51.479Z,100796.59
2023-05-08T17:18:19.032Z,100791.03
2023-05-08T17:20:46.871Z,100784.19
2023-05-08T17:23:16.112Z,100796.84
2023-05-08T17:25:44.249Z,100789.16
2023-05-08T17:28:12.208Z,100786.13
2023-05-08T17:30:41.858Z,100786.03
2023-05-08T17:33:10.002Z,100783.44
2023-05-08T17:35:38.092Z,100789.34
2023-05-08T17:38:05.906Z,100785.69
2023-05-08T17:40:37.185Z,100792.19
2023-05-08T17:43:05.049Z,100782.00
2023-05-08T17:45:32.880Z,100791.25
2023-05-08T17:48:00.505Z,100792.28
2023-05-08T17:50:28.009Z,100787.28
2023-05-08T17:52:55.503Z,100793.25
2023-05-08T17:55:23.164Z,100794.56
2023-05-08T17:57:53.127Z,100794.56
2023-05-08T18:00:20.805Z,100798.50
2023-05-08T18:02:48.367Z,100801.50
2023-05-08T18:05:16.621Z,100796.06
2023-05-08T18:07:44.098Z,100801.34
2023-05-08T18:10:12.499Z,100802.03
2023-05-08T18:12:40.439Z,100799.13
2023-05-08T18:15:10.297Z,100795.38
2023-05-08T18:17:37.913Z,100792.81
2023-05-08T18:20:07.763Z,100803.59
2023-05-08T18:22:35.360Z,100800.34
2023-05-08T18:25:03.256Z,100806.09
2023-05-08T18:27:33.326Z,100812.06
2023-05-08T18:30:00.981Z,100812.38
2023-05-08T18:32:30.020Z,100814.19
2023-05-08T18:34:57.572Z,100811.97
2023-05-08T18:37:25.169Z,100813.97
2023-05-08T18:39:52.680Z,100812.22
2023-05-08T18:42:20.432Z,100820.59
2023-05-08T18:44:48.445Z,100817.88
2023-05-08T18:47:15.909Z,100821.16
2023-05-08T18:49:44.737Z,100819.22
2023-05-08T18:52:12.223Z,100817.72
2023-05-08T18:54:39.716Z,100817.84
2023-05-08T18:57:07.189Z,100822.78
2023-05-08T18:59:34.700Z,100828.25
2023-05-08T19:02:02.172Z,100827.63
2023-05-08T19:04:29.741Z,100825.19
2023-05-08T19:06:58.565Z,100826.50
2023-05-08T19:09:26.084Z,100827.94
2023-05-08T19:11:53.591Z,100822.69
2023-05-08T19:14:21.049Z,100828.56
2023-05-08T19:16:48.535Z,100824.59
2023-05-08T19:19:16.030Z,100837.75
2023-05-08T19:21:43.520Z,100831.63
2023-05-08T19:24:12.367Z,100840.28
2023-05-08T19:26:39.852Z,100834.09
2023-05-08T19:29:07.514Z,100836.84
2023-05-08T19:31:35.080Z,100833.31
2023-05-08T19:34:02.721Z,100840.53
2023-05-08T19:36:30.395Z,100833.72
2023-05-08T19:38:57.878Z,100829.97
2023-05-08T19:41:26.991Z,100832.47
2023-05-08T19:43:54.463Z,100831.06
2023-05-08T19:46:21.964Z,100835.94
2023-05-08T19:48:49.466Z,100833.94
2023-05-08T19:51:17.194Z,100825.41
2023-05-08T19:53:44.682Z,100833.69
2023-05-08T19:56:12.234Z,100842.34
2023-05-08T19:58:41.020Z,100836.06
2023-05-08T20:01:08.543Z,100831.25
2023-05-08T20:03:36.120Z,100834.81
2023-05-08T20:06:03.726Z,100839.03
2023-05-08T20:08:31.271Z,100831.13
2023-05-08T20:11:02.302Z,100828.19
2023-05-08T20:13:29.798Z,100830.38
2023-05-08T20:15:59.315Z,100832.91
2023-05-08T20:18:26.973Z,100825.88
2023-05-08T20:20:54.444Z,100827.97
2023-05-08T20:23:21.930Z,100824.06
2023-05-08T20:25:49.437Z,100824.84
2023-05-08T20:28:22.106Z,100828.03
2023-05-08T20:30:49.913Z,100827.69
2023-05-08T20:33:18.851Z,100818.91
2023-05-08T20:35:46.536Z,100822.38
2023-05-08T20:38:14.706Z,100816.69
2023-05-08T20:40:42.543Z,100810.72
2023-05-08T20:43:10.548Z,100817.47
2023-05-08T20:45:38.211Z,100819.69
2023-05-08T20:48:06.269Z,100824.63
2023-05-08T20:50:35.166Z,100823.69
2023-05-08T20:53:02.665Z,100819.06
2023-05-08T20:55:30.155Z,100819.00
2023-05-08T20:57:59.317Z,100823.53
2023-05-08T21:00:27.019Z,100812.13
2023-05-08T21:02:54.539Z,100816.53
2023-05-08T21:05:22.086Z,100817.38
2023-05-08T21:07:50.911Z,100808.25
2023-05-08T21:10:18.923Z,100810.34
2023-05-08T21:12:46.515Z,100807.19
2023-05-08T21:15:14.256Z,100803.59
2023-05-08T21:17:42.020Z,100801.84
2023-05-08T21:20:10.696Z,100797.44
2023-05-08T21:22:38.214Z,100792.06
2023-05-08T21:25:07.556Z,100797.06
2023-05-08T21:27:35.053Z,100793.88
2023-05-08T21:30:02.531Z,100787.56
2023-05-08T21:32:30.031Z,100786.00
2023-05-08T21:34:57.537Z,100783.69
2023-05-08T21:37:25.113Z,100783.97
2023-05-08T21:39:52.659Z,100779.75
2023-05-08T21:42:21.450Z,100774.41
2023-05-08T21:44:48.928Z,100768.22
2023-05-08T21:47:16.396Z,100771.88
2023-05-08T21:49:44.057Z,100769.16
2023-05-08T21:52:11.540Z,100773.00
2023-05-08T21:54:39.041Z,100770.22
2023-05-08T21:57:07.508Z,100775.56
2023-05-08T21:59:36.291Z,100764.84
2023-05-08T22:02:03.975Z,100767.31
2023-05-08T22:04:31.606Z,100772.72
2023-05-08T22:06:59.093Z,100773.69
2023-05-08T22:09:26.599Z,100768.28
2023-05-08T22:11:54.113Z,100771.06
2023-05-08T22:14:21.579Z,100764.84
2023-05-08T22:16:50.914Z,100766.59
2023-05-08T22:19:18.408Z,100759.75
2023-05-08T22:21:45.922Z,100761.09
2023-05-08T22:24:14.957Z,100763.63
2023-05-08T22:26:42.482Z,100769.81
2023-05-08T22:29:09.954Z,100775.44
2023-05-08T22:31:37.459Z,100774.25
2023-05-08T22:34:06.313Z,100772.56
2023-05-08T22:36:33.803Z,100769.81
2023-05-08T22:39:01.392Z,100772.88
2023-05-08T22:41:30.478Z,100768.53
2023-05-08T22:43:58.048Z,100766.91
2023-05-08T22:46:25.910Z,100765.75
2023-05-08T22:48:53.563Z,100757.63
2023-05-08T22:51:22.368Z,100760.44
2023-05-08T22:53:49.854Z,100754.75
2023-05-08T22:56:17.325Z,100752.81
2023-05-08T22:58:44.864Z,100755.53
2023-05-08T23:01:13.090Z,100745.88
2023-05-08T23:03:40.648Z,100739.88
2023-05-08T23:06:08.288Z,100741.09
2023-05-08T23:08:37.065Z,100732.69
2023-05-08T23:11:04.626Z,100736.56
2023-05-08T23:13:32.678Z,100738.84
2023-05-08T23:16:00.228Z,100740.81
2023-05-08T23:18:27.675Z,100734.47
2023-05-08T23:20:55.168Z,100741.69
2023-05-08T23:23:22.671Z,100728.34
2023-05-08T23:25:51.464Z,100729.97
2023-05-08T23:28:19.011Z,100729.16
2023-05-08T23:30:46.498Z,100727.16
2023-05-08T23:33:13.974Z,100725.78
2023-05-08T23:35:41.467Z,100732.66
2023-05-08T23:38:08.968Z,100728.50
2023-05-08T23:40:36.684Z,100731.31
2023-05-08T23:43:06.139Z,100722.06
2023-05-08T23:45:33.640Z,100724.03
2023-05-08T23:48:01.274Z,100715.38
2023-05-08T23:50:28.777Z,100716.47
2023-05-08T23:52:56.445Z,100714.41
2023-05-08T23:55:23.925Z,100711.97
2023-05-08T23:57:51.856Z,100713.69
